createdAt,value
2018-03-30T00:00:00.726Z,1002.33
2018-03-30T00:01:00.766Z,1002.30
2018-03-30T00:02:00.818Z,1002.31
2018-03-30T00:03:00.882Z,1002.33
2018-03-30T00:04:00.942Z,1002.26
2018-03-30T00:05:01.002Z,1002.31
2018-03-30T00:06:01.130Z,1002.30
2018-03-30T00:07:01.131Z,1002.26
2018-03-30T00:08:01.182Z,1002.28
2018-03-30T00:09:01.242Z,1002.27
2018-03-30T00:10:01.303Z,1002.32
2018-03-30T00:11:01.392Z,1002.30
2018-03-30T00:12:01.422Z,1002.32
2018-03-30T00:13:01.487Z,1002.30
2018-03-30T00:14:01.543Z,1002.31
2018-03-30T00:15:01.610Z,1002.29
2018-03-30T00:16:01.666Z,1002.29
2018-03-30T00:17:01.730Z,1002.30
2018-03-30T00:18:01.791Z,1002.26
2018-03-30T00:19:01.851Z,1002.26
2018-03-30T00:20:01.911Z,1002.25
2018-03-30T00:21:01.975Z,1002.24
2018-03-30T00:22:02.035Z,1002.26
2018-03-30T00:23:02.087Z,1002.24
2018-03-30T00:24:02.151Z,1002.23
2018-03-30T00:25:02.211Z,1002.24
2018-03-30T00:26:02.272Z,1002.23
2018-03-30T00:27:02.491Z,1002.22
2018-03-30T00:28:02.395Z,1002.21
2018-03-30T00:29:02.455Z,1002.20
2018-03-30T00:30:02.507Z,1002.17
2018-03-30T00:31:02.571Z,1002.16
2018-03-30T00:32:02.636Z,1002.20
2018-03-30T00:33:02.715Z,1002.18
2018-03-30T00:34:02.751Z,1002.15
2018-03-30T00:35:02.812Z,1002.17
2018-03-30T00:36:02.871Z,1002.18
2018-03-30T00:37:02.943Z,1002.16
2018-03-30T00:38:03.007Z,1002.14
2018-03-30T00:39:03.080Z,1002.14
2018-03-30T00:40:03.111Z,1002.17
2018-03-30T00:41:03.172Z,1002.12
2018-03-30T00:42:03.383Z,1002.18
2018-03-30T00:43:03.300Z,1002.11
2018-03-30T00:44:03.381Z,1002.11
2018-03-30T00:45:03.417Z,1002.11
2018-03-30T00:46:03.475Z,1002.07
2018-03-30T00:47:03.548Z,1002.08
2018-03-30T00:48:03.612Z,1002.12
2018-03-30T00:49:03.652Z,1002.11
2018-03-30T00:50:03.717Z,1002.07
2018-03-30T00:51:03.776Z,1002.06
2018-03-30T00:52:03.844Z,1002.00
2018-03-30T00:53:03.907Z,1002.03
2018-03-30T00:54:03.964Z,1001.99
2018-03-30T00:55:04.025Z,1001.98
2018-03-30T00:56:04.093Z,1002.01
2018-03-30T00:57:04.172Z,1002.00
2018-03-30T00:58:04.204Z,1001.98
2018-03-30T00:59:04.260Z,1001.98
2018-03-30T01:00:04.324Z,1001.98
2018-03-30T01:01:04.384Z,1001.94
2018-03-30T01:02:04.451Z,1001.98
2018-03-30T01:03:04.517Z,1001.98
2018-03-30T01:04:04.564Z,1001.98
2018-03-30T01:05:04.633Z,1001.96
2018-03-30T01:06:04.682Z,1001.99
2018-03-30T01:07:04.748Z,1001.97
2018-03-30T01:08:04.813Z,1001.98
2018-03-30T01:09:04.873Z,1001.97
2018-03-30T01:10:04.921Z,1001.94
2018-03-30T01:11:04.989Z,1001.92
2018-03-30T01:12:05.053Z,1001.91
2018-03-30T01:13:05.113Z,1001.89
2018-03-30T01:14:05.164Z,1001.86
2018-03-30T01:15:05.225Z,1001.88
2018-03-30T01:16:05.293Z,1001.86
2018-03-30T01:17:05.353Z,1001.84
2018-03-30T01:18:05.429Z,1001.88
2018-03-30T01:19:05.473Z,1001.87
2018-03-30T01:20:05.533Z,1001.88
2018-03-30T01:21:05.593Z,1001.87
2018-03-30T01:22:05.664Z,1001.84
2018-03-30T01:23:05.717Z,1001.78
2018-03-30T01:24:05.773Z,1001.77
2018-03-30T01:25:05.838Z,1001.72
2018-03-30T01:26:05.898Z,1001.77
2018-03-30T01:27:05.966Z,1001.71
2018-03-30T01:28:06.021Z,1001.73
2018-03-30T01:29:06.076Z,1001.72
2018-03-30T01:30:06.154Z,1001.75
2018-03-30T01:31:06.198Z,1001.71
2018-03-30T01:32:06.526Z,1001.68
2018-03-30T01:33:06.314Z,1001.66
2018-03-30T01:34:06.378Z,1001.64
2018-03-30T01:35:06.434Z,1001.63
2018-03-30T01:36:06.502Z,1001.59
2018-03-30T01:37:06.562Z,1001.58
2018-03-30T01:38:06.627Z,1001.57
2018-03-30T01:39:06.681Z,1001.57
2018-03-30T01:40:06.738Z,1001.58
2018-03-30T01:41:06.798Z,1001.56
2018-03-30T01:42:06.867Z,1001.57
2018-03-30T01:43:06.930Z,1001.53
2018-03-30T01:44:06.980Z,1001.53
2018-03-30T01:45:07.038Z,1001.49
2018-03-30T01:46:07.098Z,1001.47
2018-03-30T01:47:07.458Z,1001.48
2018-03-30T01:48:07.222Z,1001.44
2018-03-30T01:49:07.282Z,1001.51
2018-03-30T01:50:07.347Z,1001.48
2018-03-30T01:51:07.406Z,1001.47
2018-03-30T01:52:07.471Z,1001.51
2018-03-30T01:53:07.551Z,1001.49
2018-03-30T01:54:07.582Z,1001.51
2018-03-30T01:55:07.642Z,1001.52
2018-03-30T01:56:07.710Z,1001.53
2018-03-30T01:57:07.778Z,1001.50
2018-03-30T01:58:07.840Z,1001.52
2018-03-30T01:59:07.886Z,1001.50
2018-03-30T02:00:07.951Z,1001.52
2018-03-30T02:01:08.015Z,1001.51
2018-03-30T02:02:08.075Z,1001.49
2018-03-30T02:03:08.135Z,1001.48
2018-03-30T02:04:08.190Z,1001.46
2018-03-30T02:05:08.247Z,1001.42
2018-03-30T02:06:08.307Z,1001.41
2018-03-30T02:07:08.375Z,1001.41
2018-03-30T02:08:08.435Z,1001.43
2018-03-30T02:09:08.491Z,1001.43
2018-03-30T02:10:08.547Z,1001.48
2018-03-30T02:11:08.612Z,1001.49
2018-03-30T02:12:08.679Z,1001.47
2018-03-30T02:13:08.739Z,1001.47
2018-03-30T02:14:08.800Z,1001.43
2018-03-30T02:15:08.851Z,1001.41
2018-03-30T02:16:08.908Z,1001.44
2018-03-30T02:17:08.979Z,1001.38
2018-03-30T02:18:09.048Z,1001.39
2018-03-30T02:19:09.095Z,1001.37
2018-03-30T02:20:09.151Z,1001.34
2018-03-30T02:21:09.216Z,1001.33
2018-03-30T02:22:09.389Z,1001.38
2018-03-30T02:23:09.340Z,1001.35
2018-03-30T02:24:09.396Z,1001.32
2018-03-30T02:25:09.456Z,1001.28
2018-03-30T02:26:09.532Z,1001.32
2018-03-30T02:27:09.588Z,1001.25
2018-03-30T02:28:09.644Z,1001.28
2018-03-30T02:29:09.696Z,1001.22
2018-03-30T02:30:09.757Z,1001.21
2018-03-30T02:31:09.822Z,1001.19
2018-03-30T02:32:09.896Z,1001.17
2018-03-30T02:33:09.944Z,1001.17
2018-03-30T02:34:10.002Z,1001.10
2018-03-30T02:35:10.065Z,1001.12
2018-03-30T02:36:10.126Z,1001.12
2018-03-30T02:37:10.485Z,1001.11
2018-03-30T02:38:10.242Z,1001.10
2018-03-30T02:39:10.301Z,1001.11
2018-03-30T02:40:10.362Z,1001.07
2018-03-30T02:41:10.422Z,1001.11
2018-03-30T02:42:10.490Z,1001.08
2018-03-30T02:43:10.693Z,1001.06
2018-03-30T02:44:10.601Z,1001.10
2018-03-30T02:45:10.662Z,1001.07
2018-03-30T02:46:10.722Z,1001.09
2018-03-30T02:47:10.787Z,1001.06
2018-03-30T02:48:10.849Z,1001.00
2018-03-30T02:49:10.910Z,1000.98
2018-03-30T02:50:10.974Z,1000.98
2018-03-30T02:51:11.025Z,1000.96
2018-03-30T02:52:11.102Z,1000.98
2018-03-30T02:53:11.179Z,1001.02
2018-03-30T02:54:11.207Z,1000.98
2018-03-30T02:55:11.269Z,1001.01
2018-03-30T02:56:11.330Z,1000.99
2018-03-30T02:57:11.393Z,1001.01
2018-03-30T02:58:11.458Z,1001.06
2018-03-30T02:59:11.514Z,1000.98
2018-03-30T03:00:11.566Z,1000.97
2018-03-30T03:01:11.630Z,1000.99
2018-03-30T03:02:11.706Z,1001.00
2018-03-30T03:03:11.766Z,1000.98
2018-03-30T03:04:11.828Z,1000.97
2018-03-30T03:05:11.887Z,1000.96
2018-03-30T03:06:11.938Z,1000.95
2018-03-30T03:07:11.989Z,1000.96
2018-03-30T03:08:12.069Z,1000.94
2018-03-30T03:09:12.122Z,1001.00
2018-03-30T03:10:12.170Z,1000.95
2018-03-30T03:11:12.230Z,1000.95
2018-03-30T03:12:12.290Z,1000.97
2018-03-30T03:13:12.358Z,1001.01
2018-03-30T03:14:12.419Z,1001.04
2018-03-30T03:15:12.471Z,1001.03
2018-03-30T03:16:12.584Z,1001.00
2018-03-30T03:17:12.594Z,1001.00
2018-03-30T03:18:12.662Z,1001.01
2018-03-30T03:19:12.727Z,1001.01
2018-03-30T03:20:12.774Z,1000.96
2018-03-30T03:21:12.834Z,1000.98
2018-03-30T03:22:12.894Z,1000.98
2018-03-30T03:23:12.962Z,1001.00
2018-03-30T03:24:13.033Z,1001.01
2018-03-30T03:25:13.074Z,1001.01
2018-03-30T03:26:13.135Z,1000.99
2018-03-30T03:27:13.194Z,1001.02
2018-03-30T03:28:13.255Z,1001.02
2018-03-30T03:29:13.651Z,1000.97
2018-03-30T03:30:13.379Z,1000.99
2018-03-30T03:31:13.439Z,1000.96
2018-03-30T03:32:13.527Z,1001.00
2018-03-30T03:33:13.567Z,1001.00
2018-03-30T03:34:13.618Z,1001.01
2018-03-30T03:35:13.700Z,1001.02
2018-03-30T03:36:13.738Z,1000.96
2018-03-30T03:37:13.802Z,1000.96
2018-03-30T03:38:13.863Z,1000.97
2018-03-30T03:39:13.923Z,1000.96
2018-03-30T03:40:13.995Z,1000.95
2018-03-30T03:41:14.050Z,1000.92
2018-03-30T03:42:14.127Z,1000.95
2018-03-30T03:43:14.163Z,1000.89
2018-03-30T03:44:14.223Z,1000.89
2018-03-30T03:45:14.287Z,1000.89
2018-03-30T03:46:14.507Z,1000.91
2018-03-30T03:47:14.424Z,1000.89
2018-03-30T03:48:14.467Z,1000.89
2018-03-30T03:49:14.527Z,1000.84
2018-03-30T03:50:14.591Z,1000.87
2018-03-30T03:51:14.655Z,1000.87
2018-03-30T03:52:14.719Z,1000.86
2018-03-30T03:53:14.767Z,1000.85
2018-03-30T03:54:14.835Z,1000.89
2018-03-30T03:55:14.887Z,1000.92
2018-03-30T03:56:14.955Z,1000.91
2018-03-30T03:57:15.028Z,1000.92
2018-03-30T03:58:15.072Z,1000.94
2018-03-30T03:59:15.136Z,1000.92
2018-03-30T04:00:15.196Z,1000.93
2018-03-30T04:01:15.256Z,1000.92
2018-03-30T04:02:15.348Z,1000.91
2018-03-30T04:03:15.387Z,1000.93
2018-03-30T04:04:15.436Z,1000.92
2018-03-30T04:05:15.500Z,1000.90
2018-03-30T04:06:15.559Z,1000.87
2018-03-30T04:07:15.648Z,1000.83
2018-03-30T04:08:15.682Z,1000.85
2018-03-30T04:09:15.745Z,1000.79
2018-03-30T04:10:15.799Z,1000.83
2018-03-30T04:11:15.861Z,1000.80
2018-03-30T04:12:15.928Z,1000.82
2018-03-30T04:13:15.996Z,1000.83
2018-03-30T04:14:16.054Z,1000.82
2018-03-30T04:15:16.100Z,1000.87
2018-03-30T04:16:16.168Z,1000.84
2018-03-30T04:17:16.224Z,1000.83
2018-03-30T04:18:16.392Z,1000.84
2018-03-30T04:19:16.344Z,1000.83
2018-03-30T04:20:16.406Z,1000.82
2018-03-30T04:21:16.469Z,1000.78
2018-03-30T04:22:16.524Z,1000.81
2018-03-30T04:23:16.600Z,1000.74
2018-03-30T04:24:16.652Z,1000.74
2018-03-30T04:25:16.714Z,1000.67
2018-03-30T04:26:16.769Z,1000.72
2018-03-30T04:27:16.841Z,1000.71
2018-03-30T04:28:16.896Z,1000.73
2018-03-30T04:29:16.993Z,1000.73
2018-03-30T04:30:17.025Z,1000.68
2018-03-30T04:31:17.073Z,1000.72
2018-03-30T04:32:17.149Z,1000.71
2018-03-30T04:33:17.221Z,1000.72
2018-03-30T04:34:17.257Z,1000.69
2018-03-30T04:35:17.321Z,1000.67
2018-03-30T04:36:17.373Z,1000.68
2018-03-30T04:37:17.441Z,1000.66
2018-03-30T04:38:17.500Z,1000.69
2018-03-30T04:39:17.562Z,1000.67
2018-03-30T04:40:17.634Z,1000.67
2018-03-30T04:41:17.677Z,1000.68
2018-03-30T04:42:17.737Z,1000.66
2018-03-30T04:43:17.805Z,1000.64
2018-03-30T04:44:17.865Z,1000.60
2018-03-30T04:45:17.925Z,1000.62
2018-03-30T04:46:17.985Z,1000.59
2018-03-30T04:47:18.041Z,1000.62
2018-03-30T04:48:18.261Z,1000.65
2018-03-30T04:49:18.161Z,1000.65
2018-03-30T04:50:18.221Z,1000.73
2018-03-30T04:51:18.297Z,1000.75
2018-03-30T04:52:18.345Z,1000.73
2018-03-30T04:53:18.421Z,1000.71
2018-03-30T04:54:18.518Z,1000.70
2018-03-30T04:55:18.578Z,1000.70
2018-03-30T04:56:18.585Z,1000.73
2018-03-30T04:57:18.646Z,1000.73
2018-03-30T04:58:18.718Z,1000.70
2018-03-30T04:59:18.778Z,1000.72
2018-03-30T05:00:18.830Z,1000.76
2018-03-30T05:01:18.894Z,1000.77
2018-03-30T05:02:18.950Z,1000.77
2018-03-30T05:03:19.030Z,1000.77
2018-03-30T05:04:19.077Z,1000.78
2018-03-30T05:05:19.130Z,1000.75
2018-03-30T05:06:19.190Z,1000.78
2018-03-30T05:07:19.250Z,1000.81
2018-03-30T05:08:19.558Z,1000.80
2018-03-30T05:09:19.386Z,1000.78
2018-03-30T05:10:19.450Z,1000.84
2018-03-30T05:11:19.494Z,1000.77
2018-03-30T05:12:19.554Z,1000.74
2018-03-30T05:13:19.627Z,1000.80
2018-03-30T05:14:19.690Z,1000.79
2018-03-30T05:15:19.738Z,1000.77
2018-03-30T05:16:19.790Z,1000.77
2018-03-30T05:17:19.854Z,1000.75
2018-03-30T05:18:19.926Z,1000.76
2018-03-30T05:19:19.983Z,1000.76
2018-03-30T05:20:20.039Z,1000.80
2018-03-30T05:21:20.099Z,1000.83
2018-03-30T05:22:20.166Z,1000.83
2018-03-30T05:23:20.247Z,1000.84
2018-03-30T05:24:20.279Z,1000.80
2018-03-30T05:25:20.343Z,1000.77
2018-03-30T05:26:20.399Z,1000.75
2018-03-30T05:27:20.463Z,1000.78
2018-03-30T05:28:20.531Z,1000.80
2018-03-30T05:29:20.595Z,1000.81
2018-03-30T05:30:20.642Z,1000.79
2018-03-30T05:31:20.703Z,1000.78
2018-03-30T05:32:20.767Z,1000.80
2018-03-30T05:33:20.863Z,1000.77
2018-03-30T05:34:20.895Z,1000.77
2018-03-30T05:35:20.955Z,1000.78
2018-03-30T05:36:21.013Z,1000.76
2018-03-30T05:37:21.071Z,1000.77
2018-03-30T05:38:21.147Z,1000.76
2018-03-30T05:39:21.187Z,1000.70
2018-03-30T05:40:21.243Z,1000.70
2018-03-30T05:41:21.311Z,1000.70
2018-03-30T05:42:21.399Z,1000.65
2018-03-30T05:43:21.483Z,1000.65
2018-03-30T05:44:22.195Z,1000.66
2018-03-30T05:45:24.219Z,1000.61
2018-03-30T05:46:21.876Z,1000.62
2018-03-30T05:47:21.695Z,1000.59
2018-03-30T05:48:21.751Z,1000.60
2018-03-30T05:49:21.827Z,1000.62
2018-03-30T05:50:21.864Z,1000.65
2018-03-30T05:51:22.208Z,1000.65
2018-03-30T05:52:22.048Z,1000.63
2018-03-30T05:53:22.068Z,1000.60
2018-03-30T05:54:22.129Z,1000.60
2018-03-30T05:55:22.167Z,1000.63
2018-03-30T05:56:22.223Z,1000.64
2018-03-30T05:57:22.627Z,1000.71
2018-03-30T05:58:22.744Z,1000.70
2018-03-30T05:59:22.412Z,1000.69
2018-03-30T06:00:22.484Z,1000.67
2018-03-30T06:01:22.544Z,1000.64
2018-03-30T06:02:22.602Z,1000.63
2018-03-30T06:03:22.680Z,1000.65
2018-03-30T06:04:22.730Z,1000.61
2018-03-30T06:05:22.776Z,1000.62
2018-03-30T06:06:22.825Z,1000.70
2018-03-30T06:07:22.900Z,1000.71
2018-03-30T06:08:22.955Z,1000.72
2018-03-30T06:09:23.024Z,1000.72
2018-03-30T06:10:23.153Z,1000.70
2018-03-30T06:11:23.131Z,1000.71
2018-03-30T06:12:23.188Z,1000.70
2018-03-30T06:13:23.263Z,1000.69
2018-03-30T06:14:23.325Z,1000.70
2018-03-30T06:15:23.392Z,1000.75
2018-03-30T06:16:23.449Z,1000.73
2018-03-30T06:17:23.501Z,1000.69
2018-03-30T06:18:23.580Z,1000.65
2018-03-30T06:19:23.637Z,1000.65
2018-03-30T06:20:23.713Z,1000.63
2018-03-30T06:21:24.093Z,1000.64
2018-03-30T06:22:23.797Z,1000.64
2018-03-30T06:23:23.869Z,1000.68
2018-03-30T06:24:23.977Z,1000.66
2018-03-30T06:25:25.121Z,1000.72
2018-03-30T06:26:24.047Z,1000.74
2018-03-30T06:27:24.134Z,1000.72
2018-03-30T06:28:24.205Z,1000.73
2018-03-30T06:29:24.521Z,1000.73
2018-03-30T06:30:24.281Z,1000.70
2018-03-30T06:31:24.573Z,1000.75
2018-03-30T06:32:24.525Z,1000.78
2018-03-30T06:33:24.497Z,1000.75
2018-03-30T06:34:24.629Z,1000.72
2018-03-30T06:35:24.625Z,1000.71
2018-03-30T06:36:24.661Z,1000.68
2018-03-30T06:37:24.710Z,1000.67
2018-03-30T06:38:24.873Z,1000.67
2018-03-30T06:39:24.849Z,1000.63
2018-03-30T06:40:24.921Z,1000.62
2018-03-30T06:41:24.953Z,1000.61
2018-03-30T06:42:25.046Z,1000.62
2018-03-30T06:43:25.106Z,1000.61
2018-03-30T06:44:25.293Z,1000.63
2018-03-30T06:45:25.210Z,1000.61
2018-03-30T06:46:25.290Z,1000.62
2018-03-30T06:47:25.426Z,1000.58
2018-03-30T06:48:25.426Z,1000.57
2018-03-30T06:49:25.516Z,1000.56
2018-03-30T06:50:25.526Z,1000.59
2018-03-30T06:51:25.586Z,1000.57
2018-03-30T06:52:25.682Z,1000.57
2018-03-30T06:53:25.758Z,1000.61
2018-03-30T06:54:25.825Z,1000.61
2018-03-30T06:55:25.910Z,1000.61
2018-03-30T06:56:25.894Z,1000.60
2018-03-30T06:57:26.826Z,1000.60
2018-03-30T06:58:26.034Z,1000.59
2018-03-30T06:59:26.386Z,1000.61
2018-03-30T07:00:26.254Z,1000.63
2018-03-30T07:01:26.242Z,1000.59
2018-03-30T07:02:26.390Z,1000.58
2018-03-30T07:03:26.322Z,1000.58
2018-03-30T07:04:26.595Z,1000.57
2018-03-30T07:05:26.439Z,1000.57
2018-03-30T07:06:26.543Z,1000.61
2018-03-30T07:07:26.550Z,1000.59
2018-03-30T07:08:26.629Z,1000.59
2018-03-30T07:09:26.768Z,1000.62
2018-03-30T07:10:26.806Z,1000.58
2018-03-30T07:11:26.803Z,1000.57
2018-03-30T07:12:27.027Z,1000.51
2018-03-30T07:13:26.955Z,1000.55
2018-03-30T07:14:27.035Z,1000.58
2018-03-30T07:15:27.292Z,1000.53
2018-03-30T07:16:27.244Z,1000.54
2018-03-30T07:17:27.375Z,1000.52
2018-03-30T07:18:27.227Z,1000.52
2018-03-30T07:19:27.471Z,1000.52
2018-03-30T07:20:27.343Z,1000.52
2018-03-30T07:21:27.408Z,1000.54
2018-03-30T07:22:27.492Z,1000.56
2018-03-30T07:23:27.536Z,1000.60
2018-03-30T07:24:27.788Z,1000.60
2018-03-30T07:25:27.664Z,1000.59
2018-03-30T07:26:27.723Z,1000.62
2018-03-30T07:27:27.780Z,1000.62
2018-03-30T07:28:27.863Z,1000.61
2018-03-30T07:29:27.920Z,1000.65
2018-03-30T07:30:27.983Z,1000.64
2018-03-30T07:31:28.079Z,1000.59
2018-03-30T07:32:28.105Z,1000.59
2018-03-30T07:33:28.252Z,1000.58
2018-03-30T07:34:28.260Z,1000.65
2018-03-30T07:35:28.340Z,1001.29
2018-03-30T07:36:28.448Z,1000.99
2018-03-30T07:37:28.408Z,1001.02
2018-03-30T07:38:28.496Z,1001.46
2018-03-30T07:39:28.608Z,1001.42
2018-03-30T07:40:28.660Z,1000.89
2018-03-30T07:41:28.684Z,1000.78
2018-03-30T07:42:28.713Z,1000.86
2018-03-30T07:43:28.780Z,1000.78
2018-03-30T07:44:28.856Z,1000.90
2018-03-30T07:45:28.920Z,1001.00
2018-03-30T07:46:28.980Z,1000.79
2018-03-30T07:47:29.405Z,1000.82
2018-03-30T07:48:29.116Z,1000.88
2018-03-30T07:49:29.208Z,1000.96
2018-03-30T07:50:29.267Z,1001.17
2018-03-30T07:51:29.280Z,1001.53
2018-03-30T07:52:29.344Z,1000.85
2018-03-30T07:53:29.417Z,1000.78
2018-03-30T07:54:29.476Z,1001.04
2018-03-30T07:55:29.557Z,1001.59
2018-03-30T07:56:29.604Z,1001.45
2018-03-30T07:57:29.665Z,1001.23
2018-03-30T07:58:29.725Z,1002.71
2018-03-30T07:59:29.820Z,1003.00
2018-03-30T08:00:29.864Z,1002.76
2018-03-30T08:01:29.937Z,1003.05
2018-03-30T08:02:29.984Z,1002.82
2018-03-30T08:03:30.055Z,1003.02
2018-03-30T08:04:30.273Z,1003.08
2018-03-30T08:05:30.236Z,1003.18
2018-03-30T08:06:30.249Z,1003.08
2018-03-30T08:07:30.316Z,1003.13
2018-03-30T08:08:30.420Z,1002.60
2018-03-30T08:09:30.477Z,1002.58
2018-03-30T08:10:30.522Z,1002.48
2018-03-30T08:11:30.573Z,1002.63
2018-03-30T08:12:30.642Z,1002.37
2018-03-30T08:13:31.589Z,1002.28
2018-03-30T08:14:30.782Z,1001.89
2018-03-30T08:15:30.857Z,1001.69
2018-03-30T08:16:30.926Z,1001.79
2018-03-30T08:17:30.993Z,1001.64
2018-03-30T08:18:31.042Z,1001.44
2018-03-30T08:19:31.158Z,1001.33
2018-03-30T08:20:31.225Z,1001.36
2018-03-30T08:21:31.298Z,1000.80
2018-03-30T08:22:31.373Z,1001.00
2018-03-30T08:23:31.398Z,1001.11
2018-03-30T08:24:31.470Z,1000.89
2018-03-30T08:25:31.537Z,1001.11
2018-03-30T08:26:31.626Z,1000.92
2018-03-30T08:27:31.726Z,1000.77
2018-03-30T08:28:31.730Z,1001.06
2018-03-30T08:29:31.805Z,1001.01
2018-03-30T08:30:31.896Z,1001.20
2018-03-30T08:31:31.942Z,1001.17
2018-03-30T08:32:32.010Z,1001.19
2018-03-30T08:33:32.086Z,1001.15
2018-03-30T08:34:32.191Z,1001.07
2018-03-30T08:35:32.215Z,1001.00
2018-03-30T08:36:32.346Z,1001.03
2018-03-30T08:37:32.350Z,1001.01
2018-03-30T08:38:32.431Z,1000.98
2018-03-30T08:39:32.500Z,1001.02
2018-03-30T08:40:32.566Z,1000.84
2018-03-30T08:41:32.626Z,1000.72
2018-03-30T08:42:32.706Z,1000.60
2018-03-30T08:43:32.782Z,1000.65
2018-03-30T08:44:32.851Z,1000.72
2018-03-30T08:45:32.923Z,1000.54
2018-03-30T08:46:33.027Z,1000.63
2018-03-30T08:47:33.043Z,1000.70
2018-03-30T08:48:33.146Z,1000.75
2018-03-30T08:49:33.259Z,1000.57
2018-03-30T08:50:33.271Z,1000.56
2018-03-30T08:51:33.322Z,1000.65
2018-03-30T08:52:33.434Z,1000.73
2018-03-30T08:53:33.459Z,1000.66
2018-03-30T08:54:33.539Z,1000.64
2018-03-30T08:55:33.599Z,1000.47
2018-03-30T08:56:33.664Z,1000.36
2018-03-30T08:57:34.004Z,1000.18
2018-03-30T08:58:33.811Z,1000.15
2018-03-30T08:59:33.891Z,1000.01
2018-03-30T09:00:33.951Z,1000.07
2018-03-30T09:01:34.015Z,1000.01
2018-03-30T09:02:34.079Z,999.97
2018-03-30T09:03:34.155Z,999.81
2018-03-30T09:04:34.227Z,999.80
2018-03-30T09:05:34.464Z,999.89
2018-03-30T09:06:34.380Z,999.83
2018-03-30T09:07:34.436Z,999.77
2018-03-30T09:08:34.503Z,999.82
2018-03-30T09:09:34.571Z,999.75
2018-03-30T09:10:34.651Z,999.78
2018-03-30T09:11:34.748Z,999.80
2018-03-30T09:12:34.779Z,999.75
2018-03-30T09:13:34.853Z,999.78
2018-03-30T09:14:34.960Z,999.72
2018-03-30T09:15:34.996Z,999.70
2018-03-30T09:16:35.080Z,999.63
2018-03-30T09:17:35.152Z,999.58
2018-03-30T09:18:35.200Z,999.70
2018-03-30T09:19:35.264Z,999.72
2018-03-30T09:20:35.346Z,999.67
2018-03-30T09:21:35.560Z,999.65
2018-03-30T09:22:35.474Z,999.62
2018-03-30T09:23:35.540Z,999.55
2018-03-30T09:24:35.616Z,999.65
2018-03-30T09:25:35.684Z,999.66
2018-03-30T09:26:35.758Z,999.64
2018-03-30T09:27:35.824Z,999.57
2018-03-30T09:28:35.892Z,999.59
2018-03-30T09:29:35.960Z,999.50
2018-03-30T09:30:36.029Z,999.48
2018-03-30T09:31:36.244Z,999.49
2018-03-30T09:32:36.167Z,999.41
2018-03-30T09:33:36.233Z,999.42
2018-03-30T09:34:36.296Z,999.44
2018-03-30T09:35:36.369Z,999.39
2018-03-30T09:36:36.441Z,999.40
2018-03-30T09:37:36.508Z,999.43
2018-03-30T09:38:36.569Z,999.32
2018-03-30T09:39:36.636Z,999.36
2018-03-30T09:40:36.713Z,999.28
2018-03-30T09:41:36.781Z,999.29
2018-03-30T09:42:36.893Z,999.26
2018-03-30T09:43:36.913Z,999.24
2018-03-30T09:44:36.981Z,999.27
2018-03-30T09:45:37.053Z,999.23
2018-03-30T09:46:37.383Z,999.19
2018-03-30T09:47:37.187Z,999.18
2018-03-30T09:48:37.256Z,999.18
2018-03-30T09:49:37.325Z,999.17
2018-03-30T09:50:37.393Z,999.19
2018-03-30T09:51:37.461Z,999.21
2018-03-30T09:52:37.536Z,999.12
2018-03-30T09:53:37.593Z,999.14
2018-03-30T09:54:37.658Z,999.17
2018-03-30T09:55:37.726Z,999.26
2018-03-30T09:56:37.802Z,999.30
2018-03-30T09:57:37.869Z,999.19
2018-03-30T09:58:37.930Z,999.18
2018-03-30T09:59:37.998Z,999.16
2018-03-30T10:00:38.074Z,999.15
2018-03-30T10:01:38.153Z,999.11
2018-03-30T10:02:38.258Z,999.16
2018-03-30T10:03:38.269Z,999.09
2018-03-30T10:04:38.342Z,999.04
2018-03-30T10:05:38.402Z,998.96
2018-03-30T10:06:38.478Z,998.95
2018-03-30T10:07:38.550Z,998.99
2018-03-30T10:08:38.615Z,998.99
2018-03-30T10:09:38.678Z,998.95
2018-03-30T10:10:38.740Z,998.90
2018-03-30T10:11:38.814Z,998.91
2018-03-30T10:12:38.885Z,998.81
2018-03-30T10:13:38.942Z,998.82
2018-03-30T10:14:39.006Z,998.80
2018-03-30T10:15:39.074Z,998.80
2018-03-30T10:16:40.074Z,998.74
2018-03-30T10:17:39.222Z,998.78
2018-03-30T10:18:39.275Z,998.71
2018-03-30T10:19:39.342Z,998.69
2018-03-30T10:20:39.415Z,998.77
2018-03-30T10:21:39.482Z,998.80
2018-03-30T10:22:39.570Z,998.72
2018-03-30T10:23:39.622Z,998.63
2018-03-30T10:24:39.686Z,998.65
2018-03-30T10:25:39.743Z,998.58
2018-03-30T10:26:39.817Z,998.52
2018-03-30T10:27:39.887Z,998.51
2018-03-30T10:28:39.955Z,998.56
2018-03-30T10:29:40.011Z,998.49
2018-03-30T10:30:40.081Z,998.54
2018-03-30T10:31:40.142Z,998.45
2018-03-30T10:32:40.295Z,998.43
2018-03-30T10:33:40.279Z,998.37
2018-03-30T10:34:40.523Z,998.47
2018-03-30T10:35:40.575Z,998.45
2018-03-30T10:36:40.478Z,998.30
2018-03-30T10:37:40.559Z,998.36
2018-03-30T10:38:40.627Z,998.28
2018-03-30T10:39:40.683Z,998.24
2018-03-30T10:40:40.743Z,998.17
2018-03-30T10:41:40.811Z,998.18
2018-03-30T10:42:40.883Z,998.16
2018-03-30T10:43:40.959Z,998.18
2018-03-30T10:44:41.128Z,998.14
2018-03-30T10:45:41.075Z,997.99
2018-03-30T10:46:41.447Z,998.03
2018-03-30T10:47:41.563Z,998.18
2018-03-30T10:48:41.311Z,998.02
2018-03-30T10:49:41.343Z,998.00
2018-03-30T10:50:41.419Z,997.87
2018-03-30T10:51:41.480Z,997.85
2018-03-30T10:52:41.552Z,997.80
2018-03-30T10:53:41.616Z,997.74
2018-03-30T10:54:41.676Z,997.73
2018-03-30T10:55:41.744Z,997.73
2018-03-30T10:56:41.827Z,997.68
2018-03-30T10:57:41.884Z,997.62
2018-03-30T10:58:41.947Z,997.58
2018-03-30T10:59:42.012Z,997.54
2018-03-30T11:00:42.084Z,997.50
2018-03-30T11:01:42.153Z,997.47
2018-03-30T11:02:42.320Z,997.45
2018-03-30T11:03:42.276Z,997.40
2018-03-30T11:04:42.340Z,997.42
2018-03-30T11:05:42.408Z,997.31
2018-03-30T11:06:42.471Z,997.23
2018-03-30T11:07:42.564Z,997.26
2018-03-30T11:08:42.620Z,997.20
2018-03-30T11:09:42.672Z,997.20
2018-03-30T11:10:42.740Z,997.10
2018-03-30T11:11:42.816Z,997.08
2018-03-30T11:12:42.880Z,997.07
2018-03-30T11:13:42.952Z,997.07
2018-03-30T11:14:43.007Z,996.98
2018-03-30T11:15:43.073Z,996.91
2018-03-30T11:16:43.145Z,996.92
2018-03-30T11:17:43.236Z,996.91
2018-03-30T11:18:43.282Z,996.84
2018-03-30T11:19:43.344Z,996.82
2018-03-30T11:20:43.408Z,996.76
2018-03-30T11:21:43.477Z,996.72
2018-03-30T11:22:43.547Z,996.71
2018-03-30T11:23:43.613Z,996.62
2018-03-30T11:24:43.672Z,996.59
2018-03-30T11:25:43.741Z,996.59
2018-03-30T11:26:43.808Z,996.48
2018-03-30T11:27:43.881Z,996.55
2018-03-30T11:28:43.948Z,996.53
2018-03-30T11:29:44.009Z,996.55
2018-03-30T11:30:44.080Z,996.49
2018-03-30T11:31:44.141Z,996.51
2018-03-30T11:32:44.228Z,996.46
2018-03-30T11:33:44.273Z,996.40
2018-03-30T11:34:44.341Z,996.45
2018-03-30T11:35:44.405Z,996.44
2018-03-30T11:36:44.478Z,996.46
2018-03-30T11:37:44.545Z,996.53
2018-03-30T11:38:44.613Z,996.46
2018-03-30T11:39:44.677Z,996.37
2018-03-30T11:40:44.750Z,996.45
2018-03-30T11:41:44.813Z,996.37
2018-03-30T11:42:44.905Z,996.36
2018-03-30T11:43:44.957Z,996.41
2018-03-30T11:44:45.064Z,996.42
2018-03-30T11:45:45.078Z,996.40
2018-03-30T11:46:45.145Z,996.33
2018-03-30T11:47:45.750Z,996.48
2018-03-30T11:48:45.453Z,996.52
2018-03-30T11:49:45.342Z,996.56
2018-03-30T11:50:45.405Z,996.57
2018-03-30T11:51:45.474Z,996.57
2018-03-30T11:52:45.542Z,996.63
2018-03-30T11:53:45.618Z,996.54
2018-03-30T11:54:45.677Z,996.58
2018-03-30T11:55:45.737Z,996.66
2018-03-30T11:56:45.811Z,996.52
2018-03-30T11:57:45.874Z,996.60
2018-03-30T11:58:45.958Z,996.54
2018-03-30T11:59:46.027Z,996.49
2018-03-30T12:00:46.074Z,996.44
2018-03-30T12:01:46.138Z,996.36
2018-03-30T12:02:46.514Z,996.47
2018-03-30T12:03:46.663Z,996.54
2018-03-30T12:04:46.338Z,996.48
2018-03-30T12:05:46.434Z,996.51
2018-03-30T12:06:46.478Z,996.52
2018-03-30T12:07:46.686Z,996.57
2018-03-30T12:08:46.698Z,996.55
2018-03-30T12:09:46.745Z,996.61
2018-03-30T12:10:46.747Z,996.61
2018-03-30T12:11:46.807Z,996.60